createdAt,value
2019-05-15T00:00:15.419Z,94769.42
2019-05-15T00:01:20.121Z,94774.52
2019-05-15T00:02:22.967Z,94771.98
2019-05-15T00:03:28.678Z,94770.45
2019-05-15T00:04:31.159Z,94767.69
2019-05-15T00:05:33.934Z,94772.50
2019-05-15T00:06:38.966Z,94773.31
2019-05-15T00:07:41.330Z,94770.13
2019-05-15T00:08:44.449Z,94770.45
2019-05-15T00:09:49.130Z,94767.47
2019-05-15T00:10:51.929Z,94774.13
2019-05-15T00:11:55.206Z,94780.26
2019-05-15T00:12:58.459Z,94779.77
2019-05-15T00:14:01.237Z,94778.81
2019-05-15T00:15:04.774Z,94792.05
2019-05-15T00:16:08.490Z,94784.25
2019-05-15T00:17:11.906Z,94776.48
2019-05-15T00:18:14.664Z,94784.98
2019-05-15T00:19:18.757Z,94783.03
2019-05-15T00:20:21.713Z,94782.41
2019-05-15T00:21:24.765Z,94785.99
2019-05-15T00:22:29.172Z,94779.86
2019-05-15T00:23:32.459Z,94785.99
2019-05-15T00:24:35.212Z,94783.84
2019-05-15T00:25:39.498Z,94790.31
2019-05-15T00:26:42.625Z,94787.02
2019-05-15T00:27:45.692Z,94787.54
2019-05-15T00:28:48.484Z,94791.53
2019-05-15T00:29:51.620Z,94784.14
2019-05-15T00:30:54.502Z,94782.00
2019-05-15T00:31:58.959Z,94787.02
2019-05-15T00:33:01.812Z,94789.88
2019-05-15T00:34:05.109Z,94791.53
2019-05-15T00:35:09.327Z,94799.10
2019-05-15T00:36:12.767Z,94795.00
2019-05-15T00:37:17.792Z,94793.16
2019-05-15T00:38:20.321Z,94790.80
2019-05-15T00:39:23.036Z,94783.03
2019-05-15T00:40:26.166Z,94777.71
2019-05-15T00:41:28.924Z,94773.72
2019-05-15T00:42:32.099Z,94778.01
2019-05-15T00:43:34.845Z,94781.19
2019-05-15T00:44:38.696Z,94782.52
2019-05-15T00:45:44.357Z,94781.00
2019-05-15T00:46:48.645Z,94783.03
2019-05-15T00:47:50.772Z,94776.16
2019-05-15T00:48:53.896Z,94772.17
2019-05-15T00:49:58.098Z,94777.41
2019-05-15T00:51:01.301Z,94769.73
2019-05-15T00:52:04.189Z,94770.55
2019-05-15T00:53:08.625Z,94766.03
2019-05-15T00:54:11.661Z,94768.41
2019-05-15T00:55:15.301Z,94769.44
2019-05-15T00:56:19.413Z,94770.77
2019-05-15T00:57:22.829Z,94764.70
2019-05-15T00:58:25.580Z,94768.18
2019-05-15T00:59:29.995Z,94765.93
2019-05-15T01:00:38.169Z,94769.33
2019-05-15T01:01:41.415Z,94769.00
2019-05-15T01:02:44.201Z,94771.14
2019-05-15T01:03:49.181Z,94771.47
2019-05-15T01:04:51.720Z,94780.45
2019-05-15T01:05:55.009Z,94775.13
2019-05-15T01:06:58.840Z,94780.78
2019-05-15T01:08:02.182Z,94779.34
2019-05-15T01:09:07.971Z,94785.48
2019-05-15T01:10:11.140Z,94775.65
2019-05-15T01:11:13.919Z,94779.34
2019-05-15T01:12:18.508Z,94777.50
2019-05-15T01:13:21.414Z,94773.51
2019-05-15T01:14:24.495Z,94775.65
2019-05-15T01:15:29.031Z,94763.68
2019-05-15T01:16:32.096Z,94768.81
2019-05-15T01:17:34.856Z,94763.16
2019-05-15T01:18:38.569Z,94757.36
2019-05-15T01:19:41.515Z,94756.22
2019-05-15T01:20:44.744Z,94753.03
2019-05-15T01:21:48.075Z,94759.91
2019-05-15T01:22:51.538Z,94754.89
2019-05-15T01:23:54.224Z,94762.16
2019-05-15T01:24:59.001Z,94759.09
2019-05-15T01:26:01.815Z,94760.32
2019-05-15T01:27:04.970Z,94755.30
2019-05-15T01:28:09.342Z,94751.60
2019-05-15T01:29:12.511Z,94755.81
2019-05-15T01:30:15.470Z,94756.33
2019-05-15T01:31:19.081Z,94755.59
2019-05-15T01:32:21.924Z,94761.24
2019-05-15T01:33:24.976Z,94757.25
2019-05-15T01:34:29.418Z,94756.22
2019-05-15T01:35:32.664Z,94755.41
2019-05-15T01:36:37.794Z,94753.67
2019-05-15T01:37:40.316Z,94752.34
2019-05-15T01:38:43.089Z,94741.70
2019-05-15T01:39:48.418Z,94749.16
2019-05-15T01:40:50.635Z,94744.66
2019-05-15T01:41:53.761Z,94741.08
2019-05-15T01:42:58.300Z,94742.70
2019-05-15T01:44:01.611Z,94740.05
2019-05-15T01:45:05.571Z,94730.95
2019-05-15T01:46:08.716Z,94730.14
2019-05-15T01:47:11.475Z,94732.58
2019-05-15T01:48:14.587Z,94728.81
2019-05-15T01:49:18.662Z,94725.12
2019-05-15T01:50:22.006Z,94721.13
2019-05-15T01:51:24.754Z,94723.27
2019-05-15T01:52:28.055Z,94721.94
2019-05-15T01:53:30.936Z,94724.59
2019-05-15T01:54:33.919Z,94723.27
2019-05-15T01:55:39.328Z,94724.41
2019-05-15T01:56:41.955Z,94726.03
2019-05-15T01:57:44.645Z,94715.58
2019-05-15T01:58:48.669Z,94716.91
2019-05-15T01:59:57.036Z,94721.94
2019-05-15T02:00:58.789Z,94717.95
2019-05-15T02:02:00.933Z,94715.09
2019-05-15T02:03:04.050Z,94716.20
2019-05-15T02:04:08.360Z,94709.45
2019-05-15T02:05:11.754Z,94714.25
2019-05-15T02:06:14.615Z,94710.78
2019-05-15T02:07:18.704Z,94710.59
2019-05-15T02:08:21.650Z,94707.12
2019-05-15T02:09:24.814Z,94703.61
2019-05-15T02:10:29.180Z,94702.80
2019-05-15T02:11:32.429Z,94703.54
2019-05-15T02:12:35.198Z,94700.36
2019-05-15T02:13:38.911Z,94706.79
2019-05-15T02:14:42.016Z,94702.09
2019-05-15T02:15:45.154Z,94705.56
2019-05-15T02:16:48.400Z,94705.67
2019-05-15T02:17:51.700Z,94704.75
2019-05-15T02:18:54.510Z,94703.61
2019-05-15T02:19:58.714Z,94707.41
2019-05-15T02:21:01.619Z,94707.22
2019-05-15T02:22:04.743Z,94704.45
2019-05-15T02:23:11.613Z,94701.17
2019-05-15T02:24:12.400Z,94704.65
2019-05-15T02:25:15.168Z,94695.86
2019-05-15T02:26:18.905Z,94696.56
2019-05-15T02:27:21.854Z,94692.90
2019-05-15T02:28:24.967Z,94690.53
2019-05-15T02:29:28.654Z,94685.41
2019-05-15T02:30:34.021Z,94686.55
2019-05-15T02:31:38.992Z,94681.84
2019-05-15T02:32:41.255Z,94684.51
2019-05-15T02:33:44.023Z,94690.64
2019-05-15T02:34:49.758Z,94686.55
2019-05-15T02:35:51.498Z,94689.20
2019-05-15T02:36:54.567Z,94688.69
2019-05-15T02:37:59.836Z,94689.83
2019-05-15T02:39:02.025Z,94693.30
2019-05-15T02:40:05.187Z,94692.78
2019-05-15T02:41:09.980Z,94688.17
2019-05-15T02:42:12.772Z,94691.05
2019-05-15T02:43:18.765Z,94690.83
2019-05-15T02:44:20.342Z,94687.66
2019-05-15T02:45:23.473Z,94691.05
2019-05-15T02:46:26.262Z,94685.41
2019-05-15T02:47:29.464Z,94681.34
2019-05-15T02:48:32.231Z,94678.46
2019-05-15T02:49:35.374Z,94680.83
2019-05-15T02:50:39.042Z,94677.65
2019-05-15T02:51:42.714Z,94679.27
2019-05-15T02:52:45.775Z,94681.64
2019-05-15T02:53:50.116Z,94688.91
2019-05-15T02:54:53.283Z,94690.23
2019-05-15T02:55:59.820Z,94689.33
2019-05-15T02:57:00.862Z,94695.97
2019-05-15T02:58:03.977Z,94686.66
2019-05-15T02:59:09.260Z,94686.95
2019-05-15T03:00:30.260Z,94685.92
2019-05-15T03:01:18.989Z,94690.66
2019-05-15T03:02:21.089Z,94687.25
2019-05-15T03:03:23.845Z,94684.18
2019-05-15T03:04:29.115Z,94684.80
2019-05-15T03:05:31.456Z,94683.77
2019-05-15T03:06:34.804Z,94682.55
2019-05-15T03:07:40.141Z,94686.34
2019-05-15T03:08:42.487Z,94687.16
2019-05-15T03:09:49.562Z,94691.86
2019-05-15T03:10:50.141Z,94699.65
2019-05-15T03:11:52.882Z,94695.55
2019-05-15T03:12:59.935Z,94694.22
2019-05-15T03:14:00.767Z,94697.80
2019-05-15T03:15:04.286Z,94696.77
2019-05-15T03:16:09.817Z,94698.22
2019-05-15T03:17:11.833Z,94698.22
2019-05-15T03:18:14.676Z,94703.00
2019-05-15T03:19:19.286Z,94705.66
2019-05-15T03:20:22.306Z,94704.64
2019-05-15T03:21:25.492Z,94703.93
2019-05-15T03:22:29.366Z,94710.28
2019-05-15T03:23:32.885Z,94711.50
2019-05-15T03:24:35.662Z,94708.84
2019-05-15T03:25:40.540Z,94712.31
2019-05-15T03:26:43.282Z,94709.47
2019-05-15T03:27:49.704Z,94709.47
2019-05-15T03:28:50.863Z,94708.24
2019-05-15T03:29:53.990Z,94707.62
2019-05-15T03:31:18.187Z,94712.02
2019-05-15T03:32:17.908Z,94704.84
2019-05-15T03:33:15.613Z,94706.20
2019-05-15T03:34:20.299Z,94706.81
2019-05-15T03:35:15.879Z,94701.60
2019-05-15T03:36:23.144Z,94705.56
2019-05-15T03:37:24.638Z,94697.08
2019-05-15T03:38:29.952Z,94703.73
2019-05-15T03:39:33.311Z,94702.92
2019-05-15T03:40:39.355Z,94705.17
2019-05-15T03:41:43.203Z,94706.50
2019-05-15T03:42:52.719Z,94708.83
2019-05-15T03:43:55.544Z,94709.45
2019-05-15T03:45:00.217Z,94715.18
2019-05-15T03:46:04.704Z,94715.18
2019-05-15T03:47:10.837Z,94714.88
2019-05-15T03:48:13.604Z,94710.36
2019-05-15T03:49:19.918Z,94709.25
2019-05-15T03:50:22.608Z,94715.27
2019-05-15T03:51:28.757Z,94714.86
2019-05-15T03:52:30.157Z,94721.08
2019-05-15T03:53:33.268Z,94721.07
2019-05-15T03:54:38.977Z,94720.25
2019-05-15T03:55:41.037Z,94715.64
2019-05-15T03:56:43.868Z,94718.48
2019-05-15T03:57:49.823Z,94714.94
2019-05-15T03:58:53.060Z,94712.98
2019-05-15T03:59:56.218Z,94717.08
2019-05-15T04:01:00.330Z,94715.80
2019-05-15T04:02:05.101Z,94709.97
2019-05-15T04:03:10.815Z,94714.17
2019-05-15T04:04:13.726Z,94716.50
2019-05-15T04:05:19.663Z,94723.47
2019-05-15T04:06:21.310Z,94723.25
2019-05-15T04:07:24.076Z,94721.25
2019-05-15T04:08:29.859Z,94724.91
2019-05-15T04:09:31.624Z,94724.28
2019-05-15T04:10:39.458Z,94722.14
2019-05-15T04:11:40.485Z,94723.25
2019-05-15T04:12:43.640Z,94729.33
2019-05-15T04:13:49.456Z,94723.72
2019-05-15T04:14:53.522Z,94723.72
2019-05-15T04:15:59.086Z,94715.98
2019-05-15T04:17:01.209Z,94712.91
2019-05-15T04:18:09.257Z,94717.82
2019-05-15T04:19:11.857Z,94724.25
2019-05-15T04:20:14.938Z,94716.60
2019-05-15T04:21:20.014Z,94719.26
2019-05-15T04:22:22.463Z,94719.23
2019-05-15T04:23:29.808Z,94716.09
2019-05-15T04:24:31.569Z,94716.89
2019-05-15T04:25:35.058Z,94727.02
2019-05-15T04:26:42.881Z,94725.28
2019-05-15T04:27:49.254Z,94726.83
2019-05-15T04:28:54.137Z,94726.42
2019-05-15T04:29:59.216Z,94725.91
2019-05-15T04:31:01.520Z,94729.78
2019-05-15T04:32:06.059Z,94738.05
2019-05-15T04:33:09.804Z,94737.45
2019-05-15T04:34:13.152Z,94738.05
2019-05-15T04:35:19.571Z,94734.87
2019-05-15T04:36:20.896Z,94736.94
2019-05-15T04:37:23.660Z,94735.69
2019-05-15T04:38:29.268Z,94740.89
2019-05-15T04:39:31.241Z,94738.12
2019-05-15T04:40:39.248Z,94739.38
2019-05-15T04:41:39.428Z,94739.45
2019-05-15T04:42:42.593Z,94740.19
2019-05-15T04:43:45.626Z,94740.89
2019-05-15T04:44:50.155Z,94738.34
2019-05-15T04:45:52.901Z,94736.61
2019-05-15T04:46:59.218Z,94734.77
2019-05-15T04:48:00.439Z,94740.37
2019-05-15T04:49:03.618Z,94734.20
2019-05-15T04:50:08.933Z,94735.20
2019-05-15T04:51:11.759Z,94736.93
2019-05-15T04:52:14.591Z,94738.84
2019-05-15T04:53:19.227Z,94738.95
2019-05-15T04:54:22.434Z,94736.19
2019-05-15T04:55:28.739Z,94735.38
2019-05-15T04:56:29.970Z,94743.05
2019-05-15T04:57:34.321Z,94732.42
2019-05-15T04:58:39.423Z,94736.00
2019-05-15T04:59:42.164Z,94736.52
2019-05-15T05:00:49.902Z,94733.34
2019-05-15T05:02:13.029Z,94731.69
2019-05-15T05:02:58.840Z,94735.08
2019-05-15T05:04:02.062Z,94733.00
2019-05-15T05:05:05.936Z,94733.52
2019-05-15T05:06:10.011Z,94736.08
2019-05-15T05:07:12.838Z,94738.13
2019-05-15T05:08:15.966Z,94737.62
2019-05-15T05:09:19.836Z,94733.22
2019-05-15T05:10:23.241Z,94736.06
2019-05-15T05:11:28.620Z,94730.85
2019-05-15T05:12:30.724Z,94733.39
2019-05-15T05:13:33.495Z,94733.79
2019-05-15T05:14:38.928Z,94739.70
2019-05-15T05:15:41.073Z,94740.61
2019-05-15T05:16:44.194Z,94742.23
2019-05-15T05:17:49.010Z,94741.94
2019-05-15T05:18:51.741Z,94745.41
2019-05-15T05:19:54.514Z,94749.27
2019-05-15T05:20:57.880Z,94747.86
2019-05-15T05:22:00.773Z,94750.52
2019-05-15T05:23:03.905Z,94753.47
2019-05-15T05:24:07.997Z,94746.32
2019-05-15T05:25:12.873Z,94746.14
2019-05-15T05:26:15.573Z,94747.77
2019-05-15T05:27:18.706Z,94748.99
2019-05-15T05:28:21.506Z,94747.66
2019-05-15T05:29:24.627Z,94753.09
2019-05-15T05:30:29.286Z,94756.27
2019-05-15T05:31:32.344Z,94756.66
2019-05-15T05:32:35.467Z,94759.72
2019-05-15T05:33:38.621Z,94760.11
2019-05-15T05:34:41.396Z,94761.95
2019-05-15T05:35:44.525Z,94762.77
2019-05-15T05:36:48.032Z,94762.77
2019-05-15T05:37:51.303Z,94759.81
2019-05-15T05:38:54.066Z,94760.91
2019-05-15T05:39:57.715Z,94763.05
2019-05-15T05:41:00.586Z,94758.25
2019-05-15T05:42:03.851Z,94758.25
2019-05-15T05:43:09.310Z,94766.81
2019-05-15T05:44:11.427Z,94763.95
2019-05-15T05:45:14.471Z,94767.82
2019-05-15T05:46:18.376Z,94768.00
2019-05-15T05:47:21.479Z,94774.64
2019-05-15T05:48:24.536Z,94771.17
2019-05-15T05:49:28.837Z,94776.30
2019-05-15T05:50:39.407Z,94771.80
2019-05-15T05:51:42.189Z,94775.27
2019-05-15T05:52:45.325Z,94774.34
2019-05-15T05:53:48.241Z,94769.55
2019-05-15T05:54:51.376Z,94776.58
2019-05-15T05:55:54.181Z,94770.30
2019-05-15T05:56:58.575Z,94771.33
2019-05-15T05:58:01.508Z,94770.52
2019-05-15T05:59:04.762Z,94771.54
2019-05-15T06:00:09.272Z,94768.38
2019-05-15T06:01:12.685Z,94766.92
2019-05-15T06:02:15.473Z,94760.29
2019-05-15T06:03:19.606Z,94761.52
2019-05-15T06:04:22.718Z,94763.88
2019-05-15T06:05:28.014Z,94766.53
2019-05-15T06:06:30.246Z,94769.19
2019-05-15T06:07:35.403Z,94773.56
2019-05-15T06:08:38.927Z,94776.22
2019-05-15T06:09:42.324Z,94776.22
2019-05-15T06:10:49.189Z,94781.83
2019-05-15T06:11:49.925Z,94783.88
2019-05-15T06:12:52.686Z,94781.70
2019-05-15T06:13:58.224Z,94776.27
2019-05-15T06:15:00.183Z,94775.80
2019-05-15T06:16:03.315Z,94780.37
2019-05-15T06:17:08.215Z,94772.93
2019-05-15T06:18:10.840Z,94777.42
2019-05-15T06:19:13.652Z,94780.26
2019-05-15T06:20:18.525Z,94785.27
2019-05-15T06:21:21.441Z,94777.52
2019-05-15T06:22:24.583Z,94783.64
2019-05-15T06:23:33.561Z,94787.28
2019-05-15T06:24:32.214Z,94789.94
2019-05-15T06:25:34.977Z,94787.62
2019-05-15T06:26:38.624Z,94789.36
2019-05-15T06:27:41.491Z,94791.62
2019-05-15T06:28:44.554Z,94788.55
2019-05-15T06:29:48.483Z,94788.55
2019-05-15T06:30:51.774Z,94793.05
2019-05-15T06:31:54.534Z,94789.25
2019-05-15T06:33:05.724Z,94788.61
2019-05-15T06:34:02.435Z,94798.53
2019-05-15T06:35:08.532Z,94789.13
2019-05-15T06:36:10.841Z,94789.94
2019-05-15T06:37:13.960Z,94791.09
2019-05-15T06:38:18.972Z,94783.81
2019-05-15T06:39:21.509Z,94782.61
2019-05-15T06:40:24.273Z,94781.67
2019-05-15T06:41:28.621Z,94779.53
2019-05-15T06:42:31.575Z,94786.47
2019-05-15T06:43:34.703Z,94787.28
2019-05-15T06:44:38.840Z,94786.29
2019-05-15T06:45:42.251Z,94785.39
2019-05-15T06:46:45.002Z,94784.48
2019-05-15T06:47:48.323Z,94784.36
2019-05-15T06:48:51.233Z,94781.22
2019-05-15T06:49:54.353Z,94778.23
2019-05-15T06:50:57.982Z,94783.03
2019-05-15T06:52:01.279Z,94779.89
2019-05-15T06:53:04.142Z,94774.38
2019-05-15T06:54:08.727Z,94771.20
2019-05-15T06:55:11.721Z,94769.70
2019-05-15T06:56:14.895Z,94770.52
2019-05-15T06:57:18.400Z,94772.35
2019-05-15T06:58:24.953Z,94771.54
2019-05-15T06:59:26.016Z,94777.24
2019-05-15T07:00:29.141Z,94778.88
2019-05-15T07:01:31.908Z,94769.19
2019-05-15T07:02:35.094Z,94771.63
2019-05-15T07:03:39.387Z,94775.13
2019-05-15T07:04:42.567Z,94771.75
2019-05-15T07:05:45.322Z,94773.70
2019-05-15T07:06:49.072Z,94775.55
2019-05-15T07:07:51.876Z,94777.91
2019-05-15T07:08:55.090Z,94773.92
2019-05-15T07:09:58.320Z,94780.44
2019-05-15T07:11:01.494Z,94782.45
2019-05-15T07:12:04.291Z,94776.45
2019-05-15T07:13:08.852Z,94787.37
2019-05-15T07:14:11.772Z,94791.36
2019-05-15T07:15:15.114Z,94792.69
2019-05-15T07:16:18.275Z,94792.86
2019-05-15T07:17:21.640Z,94790.21
2019-05-15T07:18:24.333Z,94790.03
2019-05-15T07:19:28.381Z,94783.91
2019-05-15T07:20:31.317Z,94783.30
2019-05-15T07:21:34.436Z,94781.28
2019-05-15T07:22:39.087Z,94777.30
2019-05-15T07:23:42.015Z,94776.60
2019-05-15T07:24:44.818Z,94779.81
2019-05-15T07:25:49.758Z,94785.73
2019-05-15T07:26:52.359Z,94779.44
2019-05-15T07:27:57.904Z,94779.89
2019-05-15T07:29:02.371Z,94777.91
2019-05-15T07:30:11.255Z,94776.66
2019-05-15T07:31:12.551Z,94783.02
2019-05-15T07:32:15.670Z,94778.73
2019-05-15T07:33:27.986Z,94779.70
2019-05-15T07:34:23.239Z,94783.17
2019-05-15T07:35:28.643Z,94779.89
2019-05-15T07:36:30.789Z,94785.02
2019-05-15T07:37:33.548Z,94785.31
2019-05-15T07:38:38.938Z,94786.13
2019-05-15T07:39:41.148Z,94781.44
2019-05-15T07:40:44.261Z,94781.73
2019-05-15T07:41:48.396Z,94776.75
2019-05-15T07:42:51.652Z,94781.03
2019-05-15T07:43:54.445Z,94782.98
2019-05-15T07:44:58.858Z,94775.83
2019-05-15T07:46:01.868Z,94768.66
2019-05-15T07:47:05.116Z,94769.29
2019-05-15T07:48:09.151Z,94764.27
2019-05-15T07:49:12.546Z,94767.55
2019-05-15T07:50:19.514Z,94762.34
2019-05-15T07:51:21.501Z,94767.66
2019-05-15T07:52:24.259Z,94767.77
2019-05-15T07:53:28.878Z,94765.92
2019-05-15T07:54:31.899Z,94768.06
2019-05-15T07:55:35.078Z,94767.36
2019-05-15T07:56:38.152Z,94763.89
2019-05-15T07:57:41.373Z,94772.38
2019-05-15T07:58:44.200Z,94764.41
2019-05-15T07:59:48.025Z,94764.89
2019-05-15T08:00:50.851Z,94774.52
2019-05-15T08:01:53.968Z,94773.71
2019-05-15T08:02:58.639Z,94772.27
2019-05-15T08:04:21.723Z,94773.09
2019-05-15T08:05:08.394Z,94775.23
2019-05-15T08:06:11.660Z,94770.75
2019-05-15T08:07:14.404Z,94774.41
2019-05-15T08:08:18.475Z,94773.60
2019-05-15T08:09:21.437Z,94771.56
2019-05-15T08:10:24.619Z,94777.18
2019-05-15T08:11:28.558Z,94770.83
2019-05-15T08:12:31.944Z,94769.50
2019-05-15T08:13:34.705Z,94767.98
2019-05-15T08:14:38.772Z,94768.50
2019-05-15T08:15:41.721Z,94770.45
2019-05-15T08:16:44.805Z,94776.07
2019-05-15T08:18:04.267Z,94770.45
2019-05-15T08:18:52.346Z,94768.91
2019-05-15T08:19:55.117Z,94769.20
2019-05-15T08:22:02.884Z,94771.38
2019-05-15T08:23:08.335Z,94770.23
2019-05-15T08:24:10.432Z,94768.09
2019-05-15T08:25:30.069Z,94777.17
2019-05-15T08:26:05.638Z,94772.70
2019-05-15T08:26:18.474Z,94767.87
2019-05-15T08:27:23.672Z,94767.05
2019-05-15T08:28:26.001Z,94768.38
2019-05-15T08:29:32.620Z,94771.05
2019-05-15T08:30:35.333Z,94767.57
2019-05-15T08:31:39.011Z,94765.83
2019-05-15T08:32:42.044Z,94767.45
2019-05-15T08:33:45.107Z,94767.27
2019-05-15T08:34:48.133Z,94770.96
2019-05-15T08:35:52.062Z,94766.97
2019-05-15T08:36:54.981Z,94764.61
2019-05-15T08:37:58.194Z,94769.11
2019-05-15T08:39:00.974Z,94776.28
2019-05-15T08:40:04.897Z,94771.26
2019-05-15T08:41:11.256Z,94765.53
2019-05-15T08:42:12.510Z,94772.47
2019-05-15T08:43:15.265Z,94765.11
2019-05-15T08:44:18.792Z,94765.73
2019-05-15T08:45:21.666Z,94772.50
2019-05-15T08:46:24.791Z,94770.13
2019-05-15T08:47:29.701Z,94768.20
2019-05-15T08:48:32.909Z,94767.38
2019-05-15T08:49:40.659Z,94770.64
2019-05-15T08:50:40.575Z,94766.16
2019-05-15T08:51:43.334Z,94765.78
2019-05-15T08:52:48.653Z,94766.08
2019-05-15T08:53:50.899Z,94766.88
2019-05-15T08:54:54.038Z,94773.64
2019-05-15T08:55:58.779Z,94772.71
2019-05-15T08:57:01.572Z,94776.19
2019-05-15T08:58:08.261Z,94775.48
2019-05-15T08:59:09.071Z,94768.11
2019-05-15T09:00:12.012Z,94775.88
2019-05-15T09:01:15.173Z,94777.53
2019-05-15T09:02:18.560Z,94771.69
2019-05-15T09:03:21.912Z,94769.13
2019-05-15T09:04:30.425Z,94776.08
2019-05-15T09:05:29.417Z,94778.55
2019-05-15T09:06:32.170Z,94779.66
2019-05-15T09:07:35.356Z,94777.81
2019-05-15T09:08:39.169Z,94779.47
2019-05-15T09:09:42.588Z,94770.15
2019-05-15T09:10:45.358Z,94767.78
2019-05-15T09:11:48.518Z,94768.92
2019-05-15T09:12:54.234Z,94771.98
2019-05-15T09:13:59.320Z,94772.60
2019-05-15T09:15:00.477Z,94768.91
2019-05-15T09:16:03.605Z,94767.48
2019-05-15T09:17:08.527Z,94771.64
2019-05-15T09:18:15.837Z,94779.34
2019-05-15T09:19:15.654Z,94774.53
2019-05-15T09:20:19.591Z,94779.05
2019-05-15T09:21:22.462Z,94776.16
2019-05-15T09:22:25.595Z,94776.97
2019-05-15T09:23:29.129Z,94777.39
2019-05-15T09:24:37.826Z,94775.32
2019-05-15T09:25:40.093Z,94776.23
2019-05-15T09:26:43.230Z,94776.03
2019-05-15T09:27:46.006Z,94770.30
2019-05-15T09:28:49.530Z,94772.76
2019-05-15T09:29:52.414Z,94772.23
2019-05-15T09:30:55.550Z,94767.92
2019-05-15T09:31:58.883Z,94778.16
2019-05-15T09:33:02.357Z,94772.83
2019-05-15T09:34:05.223Z,94774.78
2019-05-15T09:35:09.093Z,94776.11
2019-05-15T09:36:11.848Z,94767.11
2019-05-15T09:37:15.001Z,94773.25
2019-05-15T09:38:18.474Z,94771.92
2019-05-15T09:39:21.997Z,94770.59
2019-05-15T09:40:41.733Z,94771.40
2019-05-15T09:41:29.552Z,94766.07
2019-05-15T09:42:32.309Z,94768.02
2019-05-15T09:43:38.009Z,94765.36
2019-05-15T09:44:39.874Z,94762.98
2019-05-15T09:45:43.063Z,94760.62
2019-05-15T09:46:45.740Z,94760.42
2019-05-15T09:47:48.869Z,94757.76
2019-05-15T09:48:52.248Z,94756.63
2019-05-15T09:49:55.461Z,94759.09
2019-05-15T09:50:58.867Z,94756.94
2019-05-15T09:52:02.078Z,94764.42
2019-05-15T09:53:04.839Z,94753.44
2019-05-15T09:54:08.220Z,94755.80
2019-05-15T09:55:11.341Z,94756.63
2019-05-15T09:56:14.501Z,94761.95
2019-05-15T09:57:18.834Z,94755.80
2019-05-15T09:58:22.194Z,94765.13
2019-05-15T09:59:25.065Z,94758.89
2019-05-15T10:00:29.338Z,94763.70
2019-05-15T10:01:32.167Z,94764.22
2019-05-15T10:02:35.398Z,94769.03
2019-05-15T10:03:39.621Z,94771.40
2019-05-15T10:04:42.958Z,94770.36
2019-05-15T10:05:48.090Z,94771.40
2019-05-15T10:06:50.523Z,94771.92
2019-05-15T10:07:53.288Z,94768.73
2019-05-15T10:08:56.426Z,94771.92
2019-05-15T10:09:59.204Z,94769.25
2019-05-15T10:11:02.357Z,94764.45
2019-05-15T10:12:05.426Z,94768.44
2019-05-15T10:13:09.115Z,94764.45
2019-05-15T10:14:12.017Z,94766.07
2019-05-15T10:15:15.497Z,94761.04
2019-05-15T10:16:19.921Z,94759.19
2019-05-15T10:17:23.241Z,94757.04
2019-05-15T10:18:28.061Z,94753.86
2019-05-15T10:19:30.840Z,94753.27
2019-05-15T10:20:33.606Z,94748.47
2019-05-15T10:21:39.684Z,94750.61
2019-05-15T10:22:41.199Z,94746.09
2019-05-15T10:23:44.324Z,94745.05
2019-05-15T10:24:50.788Z,94741.06
2019-05-15T10:25:51.866Z,94747.42
2019-05-15T10:26:54.627Z,94749.27
2019-05-15T10:27:58.021Z,94742.30
2019-05-15T10:29:00.892Z,94749.99
2019-05-15T10:30:04.721Z,94743.52
2019-05-15T10:31:09.420Z,94748.37
2019-05-15T10:32:12.253Z,94748.66
2019-05-15T10:33:15.018Z,94748.47
2019-05-15T10:34:18.433Z,94747.84
2019-05-15T10:35:27.739Z,94748.86
2019-05-15T10:36:27.998Z,94746.19
2019-05-15T10:37:30.396Z,94749.70
2019-05-15T10:38:33.565Z,94739.05
2019-05-15T10:39:38.405Z,94737.06
2019-05-15T10:40:58.131Z,94726.08
2019-05-15T10:41:45.513Z,94719.61
2019-05-15T10:42:49.438Z,94715.42
2019-05-15T10:43:56.381Z,94726.66
2019-05-15T10:44:58.890Z,94724.13
2019-05-15T10:46:01.814Z,94729.98
2019-05-15T10:47:04.993Z,94726.17
2019-05-15T10:48:09.422Z,94731.59
2019-05-15T10:49:12.726Z,94727.09
2019-05-15T10:50:18.834Z,94725.46
2019-05-15T10:51:20.768Z,94721.46
2019-05-15T10:52:23.525Z,94719.81
2019-05-15T10:53:29.700Z,94719.81
2019-05-15T10:54:31.256Z,94720.65
2019-05-15T10:55:34.395Z,94722.80
2019-05-15T10:56:38.573Z,94719.09
2019-05-15T10:57:44.106Z,94725.33
2019-05-15T10:58:50.103Z,94727.47
2019-05-15T10:59:51.166Z,94715.80
2019-05-15T11:00:53.927Z,94718.67
2019-05-15T11:01:59.077Z,94718.67
2019-05-15T11:03:01.482Z,94720.32
2019-05-15T11:04:04.819Z,94721.42
2019-05-15T11:05:09.464Z,94719.28
2019-05-15T11:06:12.764Z,94721.42
2019-05-15T11:07:15.526Z,94719.28
2019-05-15T11:08:19.114Z,94719.28
2019-05-15T11:09:22.032Z,94723.57
2019-05-15T11:10:25.182Z,94720.91
2019-05-15T11:11:28.028Z,94715.28
2019-05-15T11:12:31.246Z,94715.80
2019-05-15T11:13:34.004Z,94715.80
2019-05-15T11:14:37.946Z,94711.80
2019-05-15T11:15:42.805Z,94713.43
2019-05-15T11:16:48.437Z,94712.91
2019-05-15T11:17:50.030Z,94703.09
2019-05-15T11:18:53.676Z,94708.42
2019-05-15T11:19:58.537Z,94703.58
2019-05-15T11:21:01.351Z,94706.77
2019-05-15T11:22:04.123Z,94700.62
2019-05-15T11:23:08.534Z,94710.99
2019-05-15T11:24:11.288Z,94696.34
2019-05-15T11:25:14.422Z,94706.16
2019-05-15T11:26:19.356Z,94698.39
2019-05-15T11:27:22.019Z,94696.77
2019-05-15T11:28:24.775Z,94693.58
2019-05-15T11:29:27.945Z,94693.26
2019-05-15T11:30:30.717Z,94691.44
2019-05-15T11:31:33.859Z,94690.59
2019-05-15T11:32:39.168Z,94694.10
2019-05-15T11:33:41.386Z,94681.27
2019-05-15T11:34:44.146Z,94688.25
2019-05-15T11:35:57.969Z,94683.45
2019-05-15T11:36:51.793Z,94681.07
2019-05-15T11:37:57.075Z,94680.27
2019-05-15T11:38:59.465Z,94679.45
2019-05-15T11:40:02.598Z,94679.45
2019-05-15T11:41:05.364Z,94678.61
2019-05-15T11:42:08.960Z,94683.45
2019-05-15T11:43:11.833Z,94687.12
2019-05-15T11:44:15.013Z,94678.31
2019-05-15T11:45:18.695Z,94676.78
2019-05-15T11:46:25.527Z,94675.13
2019-05-15T11:47:27.867Z,94671.45
2019-05-15T11:48:31.097Z,94672.78
2019-05-15T11:49:33.845Z,94674.12
2019-05-15T11:50:39.646Z,94673.80
2019-05-15T11:51:41.390Z,94674.12
2019-05-15T11:52:44.576Z,94676.45
2019-05-15T11:53:49.215Z,94681.79
2019-05-15T11:54:52.116Z,94680.45
2019-05-15T11:55:54.872Z,94676.45
2019-05-15T11:56:59.692Z,94677.50
2019-05-15T11:58:02.440Z,94676.17
2019-05-15T11:59:05.577Z,94673.70
2019-05-15T12:00:15.051Z,94675.03
2019-05-15T12:01:13.648Z,94674.75
2019-05-15T12:02:18.914Z,94672.60
2019-05-15T12:03:24.597Z,94669.94
2019-05-15T12:04:31.147Z,94667.27
2019-05-15T12:05:30.564Z,94667.04
2019-05-15T12:06:33.309Z,94667.66
2019-05-15T12:07:38.181Z,94663.14
2019-05-15T12:08:40.938Z,94664.80
2019-05-15T12:09:44.071Z,94668.47
2019-05-15T12:10:46.826Z,94672.47
2019-05-15T12:11:49.948Z,94674.84
2019-05-15T12:12:52.742Z,94677.18
2019-05-15T12:13:55.906Z,94679.84
2019-05-15T12:14:58.679Z,94675.84
2019-05-15T12:16:01.817Z,94676.89
2019-05-15T12:17:11.434Z,94670.45
2019-05-15T12:18:09.372Z,94668.28
2019-05-15T12:19:16.767Z,94670.13
2019-05-15T12:20:19.576Z,94672.28
2019-05-15T12:21:21.960Z,94679.45
2019-05-15T12:22:25.069Z,94681.02
2019-05-15T12:23:29.092Z,94687.16
2019-05-15T12:24:36.573Z,94684.69
2019-05-15T12:25:39.560Z,94686.55
2019-05-15T12:26:41.899Z,94697.00